sensor_id;sensor_type;location;lat;lon;timestamp;P1;durP1;ratioP1;P2;durP2;ratioP2
21101;SDS011;10709;49.006;12.100;2024-03-23T00:55:42;25.93;;;20.17;;
21101;SDS011;10709;49.006;12.100;2024-03-23T00:58:09;24.83;;;19.60;;
21101;SDS011;10709;49.006;12.100;2024-03-23T01:01:06;24.87;;;18.63;;
21101;SDS011;10709;49.006;12.100;2024-03-23T01:03:35;26.87;;;19.93;;
21101;SDS011;10709;49.006;12.100;2024-03-23T01:06:01;30.30;;;20.83;;
21101;SDS011;10709;49.006;12.100;2024-03-23T01:08:29;25.73;;;19.97;;
21101;SDS011;10709;49.006;12.100;2024-03-23T01:10:58;23.47;;;18.87;;
21101;SDS011;10709;49.006;12.100;2024-03-23T01:13:26;23.77;;;18.33;;
21101;SDS011;10709;49.006;12.100;2024-03-23T01:15:55;25.57;;;19.17;;
21101;SDS011;10709;49.006;12.100;2024-03-23T01:18:22;23.80;;;18.77;;
21101;SDS011;10709;49.006;12.100;2024-03-23T01:20:50;24.60;;;18.63;;
21101;SDS011;10709;49.006;12.100;2024-03-23T07:50:01;13.30;;;11.50;;
21101;SDS011;10709;49.006;12.100;2024-03-23T08:24:44;5.63;;;3.97;;
21101;SDS011;10709;49.006;12.100;2024-03-23T08:27:11;4.57;;;3.80;;
21101;SDS011;10709;49.006;12.100;2024-03-23T08:29:38;5.07;;;4.30;;
21101;SDS011;10709;49.006;12.100;2024-03-23T09:21:18;5.23;;;3.50;;
21101;SDS011;10709;49.006;12.100;2024-03-23T09:26:26;5.63;;;3.73;;
21101;SDS011;10709;49.006;12.100;2024-03-23T09:28:55;4.07;;;3.57;;
21101;SDS011;10709;49.006;12.100;2024-03-23T09:31:22;5.13;;;3.80;;
21101;SDS011;10709;49.006;12.100;2024-03-23T09:36:23;4.43;;;3.50;;
21101;SDS011;10709;49.006;12.100;2024-03-23T09:38:49;4.63;;;3.63;;
21101;SDS011;10709;49.006;12.100;2024-03-23T09:41:15;4.27;;;3.63;;
21101;SDS011;10709;49.006;12.100;2024-03-23T09:46:26;4.30;;;3.20;;
21101;SDS011;10709;49.006;12.100;2024-03-23T09:49:00;5.00;;;3.70;;
21101;SDS011;10709;49.006;12.100;2024-03-23T09:51:29;3.30;;;3.00;;
21101;SDS011;10709;49.006;12.100;2024-03-23T09:59:47;3.30;;;2.57;;
21101;SDS011;10709;49.006;12.100;2024-03-23T10:04:56;2.80;;;2.30;;
21101;SDS011;10709;49.006;12.100;2024-03-23T10:07:25;3.30;;;2.10;;
21101;SDS011;10709;49.006;12.100;2024-03-23T10:09:53;1.97;;;1.60;;
21101;SDS011;10709;49.006;12.100;2024-03-23T10:15:10;2.37;;;1.90;;
21101;SDS011;10709;49.006;12.100;2024-03-23T10:17:45;3.60;;;2.30;;
21101;SDS011;10709;49.006;12.100;2024-03-23T10:20:26;3.20;;;2.47;;
21101;SDS011;10709;49.006;12.100;2024-03-23T10:23:01;2.53;;;2.10;;
21101;SDS011;10709;49.006;12.100;2024-03-23T10:25:28;2.40;;;2.17;;
21101;SDS011;10709;49.006;12.100;2024-03-23T10:28:00;2.20;;;2.00;;
21101;SDS011;10709;49.006;12.100;2024-03-23T10:30:40;3.63;;;2.13;;
21101;SDS011;10709;49.006;12.100;2024-03-23T10:35:48;1.90;;;1.70;;
21101;SDS011;10709;49.006;12.100;2024-03-23T10:38:25;2.27;;;1.60;;
21101;SDS011;10709;49.006;12.100;2024-03-23T10:40:52;1.50;;;1.40;;
21101;SDS011;10709;49.006;12.100;2024-03-23T10:43:19;1.30;;;1.20;;
21101;SDS011;10709;49.006;12.100;2024-03-23T10:45:50;1.30;;;1.20;;
21101;SDS011;10709;49.006;12.100;2024-03-23T10:48:17;1.20;;;1.10;;
21101;SDS011;10709;49.006;12.100;2024-03-23T10:50:45;1.07;;;0.97;;
21101;SDS011;10709;49.006;12.100;2024-03-23T10:56:25;4.30;;;1.00;;
21101;SDS011;10709;49.006;12.100;2024-03-23T10:58:54;1.10;;;1.00;;
21101;SDS011;10709;49.006;12.100;2024-03-23T11:01:20;1.30;;;1.20;;
21101;SDS011;10709;49.006;12.100;2024-03-23T11:03:46;1.20;;;1.10;;
21101;SDS011;10709;49.006;12.100;2024-03-23T11:06:33;1.30;;;1.20;;
21101;SDS011;10709;49.006;12.100;2024-03-23T11:09:01;1.50;;;1.40;;
21101;SDS011;10709;49.006;12.100;2024-03-23T11:11:27;1.70;;;1.40;;
21101;SDS011;10709;49.006;12.100;2024-03-23T11:13:56;1.40;;;1.30;;
21101;SDS011;10709;49.006;12.100;2024-03-23T11:18:51;1.30;;;1.20;;
21101;SDS011;10709;49.006;12.100;2024-03-23T11:24:18;1.67;;;1.10;;
21101;SDS011;10709;49.006;12.100;2024-03-23T11:26:44;1.27;;;1.10;;
21101;SDS011;10709;49.006;12.100;2024-03-23T11:29:10;1.10;;;1.00;;
21101;SDS011;10709;49.006;12.100;2024-03-23T11:31:45;1.60;;;1.20;;
21101;SDS011;10709;49.006;12.100;2024-03-23T11:34:17;2.50;;;1.00;;
21101;SDS011;10709;49.006;12.100;2024-03-23T11:36:44;3.80;;;1.20;;
21101;SDS011;10709;49.006;12.100;2024-03-23T11:39:17;2.77;;;1.30;;
21101;SDS011;10709;49.006;12.100;2024-03-23T11:41:51;1.03;;;1.00;;
21101;SDS011;10709;49.006;12.100;2024-03-23T11:44:35;1.10;;;1.00;;
21101;SDS011;10709;49.006;12.100;2024-03-23T11:47:08;1.60;;;1.03;;
21101;SDS011;10709;49.006;12.100;2024-03-23T11:49:34;2.47;;;1.10;;
21101;SDS011;10709;49.006;12.100;2024-03-23T11:52:06;1.73;;;1.20;;
21101;SDS011;10709;49.006;12.100;2024-03-23T11:54:32;1.50;;;1.40;;
21101;SDS011;10709;49.006;12.100;2024-03-23T11:56:58;1.40;;;1.27;;
21101;SDS011;10709;49.006;12.100;2024-03-23T12:01:57;1.60;;;1.30;;
21101;SDS011;10709;49.006;12.100;2024-03-23T12:04:29;1.53;;;1.30;;
21101;SDS011;10709;49.006;12.100;2024-03-23T12:10:04;4.20;;;1.27;;
21101;SDS011;10709;49.006;12.100;2024-03-23T12:12:34;1.90;;;1.00;;
21101;SDS011;10709;49.006;12.100;2024-03-23T12:15:06;1.30;;;1.00;;
21101;SDS011;10709;49.006;12.100;2024-03-23T12:17:33;1.00;;;0.90;;
21101;SDS011;10709;49.006;12.100;2024-03-23T12:20:00;1.53;;;1.33;;
21101;SDS011;10709;49.006;12.100;2024-03-23T12:22:26;1.67;;;1.13;;
21101;SDS011;10709;49.006;12.100;2024-03-23T12:24:52;2.40;;;1.73;;
21101;SDS011;10709;49.006;12.100;2024-03-23T12:27:18;2.73;;;1.40;;
21101;SDS011;10709;49.006;12.100;2024-03-23T12:29:43;2.40;;;1.20;;
21101;SDS011;10709;49.006;12.100;2024-03-23T12:32:11;3.50;;;1.50;;
21101;SDS011;10709;49.006;12.100;2024-03-23T12:34:41;2.10;;;1.40;;
21101;SDS011;10709;49.006;12.100;2024-03-23T12:37:08;1.87;;;1.40;;
21101;SDS011;10709;49.006;12.100;2024-03-23T12:39:34;2.33;;;1.47;;
21101;SDS011;10709;49.006;12.100;2024-03-23T12:42:00;3.33;;;1.70;;
21101;SDS011;10709;49.006;12.100;2024-03-23T12:44:28;1.97;;;1.33;;
21101;SDS011;10709;49.006;12.100;2024-03-23T12:46:53;1.73;;;1.40;;
21101;SDS011;10709;49.006;12.100;2024-03-23T12:49:19;3.00;;;1.57;;
21101;SDS011;10709;49.006;12.100;2024-03-23T12:51:47;3.43;;;1.70;;
21101;SDS011;10709;49.006;12.100;2024-03-23T12:54:19;5.33;;;1.50;;
21101;SDS011;10709;49.006;12.100;2024-03-23T12:56:45;1.50;;;1.33;;
21101;SDS011;10709;49.006;12.100;2024-03-23T12:59:11;2.40;;;1.50;;
21101;SDS011;10709;49.006;12.100;2024-03-23T13:01:36;4.00;;;1.73;;
21101;SDS011;10709;49.006;12.100;2024-03-23T13:04:02;2.23;;;1.40;;
21101;SDS011;10709;49.006;12.100;2024-03-23T13:06:27;4.63;;;1.80;;
21101;SDS011;10709;49.006;12.100;2024-03-23T13:08:57;3.37;;;1.70;;
21101;SDS011;10709;49.006;12.100;2024-03-23T13:11:22;3.50;;;1.60;;
21101;SDS011;10709;49.006;12.100;2024-03-23T13:13:48;2.90;;;1.80;;
21101;SDS011;10709;49.006;12.100;2024-03-23T13:16:14;3.23;;;1.83;;
21101;SDS011;10709;49.006;12.100;2024-03-23T13:18:39;3.80;;;1.73;;
21101;SDS011;10709;49.006;12.100;2024-03-23T13:21:05;3.40;;;1.73;;
21101;SDS011;10709;49.006;12.100;2024-03-23T13:23:30;3.10;;;1.80;;
21101;SDS011;10709;49.006;12.100;2024-03-23T13:25:57;2.73;;;1.63;;
21101;SDS011;10709;49.006;12.100;2024-03-23T13:28:23;3.23;;;1.83;;
21101;SDS011;10709;49.006;12.100;2024-03-23T13:30:55;2.90;;;1.80;;
21101;SDS011;10709;49.006;12.100;2024-03-23T13:33:23;3.50;;;2.00;;
21101;SDS011;10709;49.006;12.100;2024-03-23T13:35:52;3.60;;;1.93;;
21101;SDS011;10709;49.006;12.100;2024-03-23T13:38:18;4.87;;;2.00;;
21101;SDS011;10709;49.006;12.100;2024-03-23T13:40:53;2.70;;;1.80;;
21101;SDS011;10709;49.006;12.100;2024-03-23T13:43:21;3.17;;;1.97;;
21101;SDS011;10709;49.006;12.100;2024-03-23T13:45:47;3.83;;;1.70;;
21101;SDS011;10709;49.006;12.100;2024-03-23T13:48:14;2.97;;;1.70;;
21101;SDS011;10709;49.006;12.100;2024-03-23T13:50:41;4.63;;;1.73;;
21101;SDS011;10709;49.006;12.100;2024-03-23T13:53:06;4.03;;;1.93;;
21101;SDS011;10709;49.006;12.100;2024-03-23T13:55:33;3.70;;;1.80;;
21101;SDS011;10709;49.006;12.100;2024-03-23T13:57:58;4.67;;;2.20;;
21101;SDS011;10709;49.006;12.100;2024-03-23T14:00:24;4.30;;;2.07;;
21101;SDS011;10709;49.006;12.100;2024-03-23T14:02:49;2.90;;;1.93;;
21101;SDS011;10709;49.006;12.100;2024-03-23T14:05:15;3.73;;;2.37;;
21101;SDS011;10709;49.006;12.100;2024-03-23T14:07:41;3.70;;;2.07;;
21101;SDS011;10709;49.006;12.100;2024-03-23T14:10:06;4.40;;;2.30;;
21101;SDS011;10709;49.006;12.100;2024-03-23T14:12:32;4.30;;;2.10;;
21101;SDS011;10709;49.006;12.100;2024-03-23T14:14:58;3.63;;;2.10;;
21101;SDS011;10709;49.006;12.100;2024-03-23T14:17:24;3.83;;;1.93;;
21101;SDS011;10709;49.006;12.100;2024-03-23T14:19:51;4.27;;;2.13;;
21101;SDS011;10709;49.006;12.100;2024-03-23T14:22:16;3.63;;;1.83;;
21101;SDS011;10709;49.006;12.100;2024-03-23T14:24:44;5.13;;;2.23;;
21101;SDS011;10709;49.006;12.100;2024-03-23T14:27:10;3.83;;;2.00;;
21101;SDS011;10709;49.006;12.100;2024-03-23T14:29:36;5.20;;;2.23;;
21101;SDS011;10709;49.006;12.100;2024-03-23T14:32:01;3.47;;;2.10;;
21101;SDS011;10709;49.006;12.100;2024-03-23T14:34:27;5.20;;;2.10;;
21101;SDS011;10709;49.006;12.100;2024-03-23T14:36:55;3.93;;;1.90;;
21101;SDS011;10709;49.006;12.100;2024-03-23T14:39:24;3.87;;;1.90;;
21101;SDS011;10709;49.006;12.100;2024-03-23T14:41:50;4.00;;;2.20;;
21101;SDS011;10709;49.006;12.100;2024-03-23T14:44:15;2.63;;;1.90;;
21101;SDS011;10709;49.006;12.100;2024-03-23T14:46:41;4.17;;;2.40;;
21101;SDS011;10709;49.006;12.100;2024-03-23T14:49:08;3.77;;;2.03;;
21101;SDS011;10709;49.006;12.100;2024-03-23T14:51:34;3.80;;;1.80;;
21101;SDS011;10709;49.006;12.100;2024-03-23T14:53:59;3.70;;;1.80;;
21101;SDS011;10709;49.006;12.100;2024-03-23T14:56:25;3.60;;;1.80;;
21101;SDS011;10709;49.006;12.100;2024-03-23T14:58:53;3.10;;;1.90;;
21101;SDS011;10709;49.006;12.100;2024-03-23T15:01:20;4.33;;;1.87;;
21101;SDS011;10709;49.006;12.100;2024-03-23T15:03:46;6.03;;;2.30;;
21101;SDS011;10709;49.006;12.100;2024-03-23T15:06:12;4.87;;;2.17;;
21101;SDS011;10709;49.006;12.100;2024-03-23T15:08:38;3.30;;;1.97;;
21101;SDS011;10709;49.006;12.100;2024-03-23T15:11:05;7.00;;;2.30;;
21101;SDS011;10709;49.006;12.100;2024-03-23T15:13:35;3.60;;;1.73;;
21101;SDS011;10709;49.006;12.100;2024-03-23T15:16:01;3.33;;;2.03;;
21101;SDS011;10709;49.006;12.100;2024-03-23T15:18:30;5.00;;;2.30;;
21101;SDS011;10709;49.006;12.100;2024-03-23T15:21:00;7.00;;;2.87;;
21101;SDS011;10709;49.006;12.100;2024-03-23T15:23:27;7.17;;;2.30;;
21101;SDS011;10709;49.006;12.100;2024-03-23T15:25:57;3.80;;;2.20;;
21101;SDS011;10709;49.006;12.100;2024-03-23T15:28:23;5.57;;;2.43;;
21101;SDS011;10709;49.006;12.100;2024-03-23T15:30:52;5.30;;;2.50;;
21101;SDS011;10709;49.006;12.100;2024-03-23T15:33:19;5.83;;;2.10;;
21101;SDS011;10709;49.006;12.100;2024-03-23T15:35:44;5.70;;;2.40;;
21101;SDS011;10709;49.006;12.100;2024-03-23T15:38:10;5.37;;;2.40;;
21101;SDS011;10709;49.006;12.100;2024-03-23T15:40:36;5.63;;;2.20;;
21101;SDS011;10709;49.006;12.100;2024-03-23T15:43:01;4.57;;;2.63;;
21101;SDS011;10709;49.006;12.100;2024-03-23T15:45:27;4.63;;;2.40;;
21101;SDS011;10709;49.006;12.100;2024-03-23T15:47:52;4.50;;;2.60;;
21101;SDS011;10709;49.006;12.100;2024-03-23T15:50:18;5.00;;;2.57;;
21101;SDS011;10709;49.006;12.100;2024-03-23T15:52:43;3.20;;;2.27;;
21101;SDS011;10709;49.006;12.100;2024-03-23T15:55:09;6.27;;;2.20;;
21101;SDS011;10709;49.006;12.100;2024-03-23T15:57:35;4.17;;;2.13;;
21101;SDS011;10709;49.006;12.100;2024-03-23T16:00:02;5.03;;;2.10;;
21101;SDS011;10709;49.006;12.100;2024-03-23T16:02:28;4.93;;;1.90;;
21101;SDS011;10709;49.006;12.100;2024-03-23T16:04:54;4.97;;;2.10;;
21101;SDS011;10709;49.006;12.100;2024-03-23T16:07:20;5.27;;;1.83;;
21101;SDS011;10709;49.006;12.100;2024-03-23T16:09:46;4.53;;;2.00;;
21101;SDS011;10709;49.006;12.100;2024-03-23T16:12:12;3.70;;;1.87;;
21101;SDS011;10709;49.006;12.100;2024-03-23T16:14:37;3.57;;;1.60;;
21101;SDS011;10709;49.006;12.100;2024-03-23T16:17:03;5.97;;;1.83;;
21101;SDS011;10709;49.006;12.100;2024-03-23T16:19:28;5.27;;;1.93;;
21101;SDS011;10709;49.006;12.100;2024-03-23T16:21:53;4.60;;;1.60;;
21101;SDS011;10709;49.006;12.100;2024-03-23T16:24:20;3.57;;;1.47;;
21101;SDS011;10709;49.006;12.100;2024-03-23T16:26:46;4.17;;;1.30;;
21101;SDS011;10709;49.006;12.100;2024-03-23T16:29:12;3.50;;;1.53;;
21101;SDS011;10709;49.006;12.100;2024-03-23T16:31:37;5.37;;;1.57;;
21101;SDS011;10709;49.006;12.100;2024-03-23T16:34:03;2.93;;;1.60;;
21101;SDS011;10709;49.006;12.100;2024-03-23T16:36:28;3.23;;;1.53;;
21101;SDS011;10709;49.006;12.100;2024-03-23T16:38:54;4.17;;;1.97;;
21101;SDS011;10709;49.006;12.100;2024-03-23T16:41:19;3.67;;;1.90;;
21101;SDS011;10709;49.006;12.100;2024-03-23T16:43:45;5.37;;;2.07;;
21101;SDS011;10709;49.006;12.100;2024-03-23T16:46:11;6.47;;;2.27;;
21101;SDS011;10709;49.006;12.100;2024-03-23T16:48:39;4.10;;;2.00;;
21101;SDS011;10709;49.006;12.100;2024-03-23T16:51:05;4.90;;;2.30;;
21101;SDS011;10709;49.006;12.100;2024-03-23T16:53:32;4.77;;;2.30;;
21101;SDS011;10709;49.006;12.100;2024-03-23T16:55:59;5.67;;;2.43;;
21101;SDS011;10709;49.006;12.100;2024-03-23T16:58:26;4.97;;;2.20;;
21101;SDS011;10709;49.006;12.100;2024-03-23T17:00:53;5.77;;;2.40;;
21101;SDS011;10709;49.006;12.100;2024-03-23T17:03:21;4.63;;;2.37;;
21101;SDS011;10709;49.006;12.100;2024-03-23T17:05:47;3.50;;;2.10;;
21101;SDS011;10709;49.006;12.100;2024-03-23T17:08:13;6.77;;;2.97;;
21101;SDS011;10709;49.006;12.100;2024-03-23T17:10:41;6.10;;;2.97;;
21101;SDS011;10709;49.006;12.100;2024-03-23T17:13:07;4.60;;;2.30;;
21101;SDS011;10709;49.006;12.100;2024-03-23T17:15:33;5.13;;;2.30;;
21101;SDS011;10709;49.006;12.100;2024-03-23T17:17:58;6.10;;;2.37;;
21101;SDS011;10709;49.006;12.100;2024-03-23T17:20:24;5.03;;;2.33;;
21101;SDS011;10709;49.006;12.100;2024-03-23T17:22:56;4.83;;;2.50;;
21101;SDS011;10709;49.006;12.100;2024-03-23T17:25:22;5.73;;;2.10;;
21101;SDS011;10709;49.006;12.100;2024-03-23T17:27:48;4.80;;;2.10;;
21101;SDS011;10709;49.006;12.100;2024-03-23T17:30:14;4.20;;;2.10;;
21101;SDS011;10709;49.006;12.100;2024-03-23T17:32:45;5.23;;;2.40;;
21101;SDS011;10709;49.006;12.100;2024-03-23T17:35:11;2.53;;;1.80;;
21101;SDS011;10709;49.006;12.100;2024-03-23T17:37:37;4.90;;;1.90;;
21101;SDS011;10709;49.006;12.100;2024-03-23T17:40:04;3.50;;;1.83;;
21101;SDS011;10709;49.006;12.100;2024-03-23T17:42:36;3.33;;;1.80;;
21101;SDS011;10709;49.006;12.100;2024-03-23T17:45:03;2.80;;;1.67;;
21101;SDS011;10709;49.006;12.100;2024-03-23T17:47:39;3.20;;;1.70;;
21101;SDS011;10709;49.006;12.100;2024-03-23T17:50:05;4.37;;;1.80;;
21101;SDS011;10709;49.006;12.100;2024-03-23T17:52:32;5.30;;;1.80;;
21101;SDS011;10709;49.006;12.100;2024-03-23T17:54:58;3.47;;;1.40;;
21101;SDS011;10709;49.006;12.100;2024-03-23T17:57:24;2.97;;;1.70;;
21101;SDS011;10709;49.006;12.100;2024-03-23T17:59:50;4.10;;;1.50;;
21101;SDS011;10709;49.006;12.100;2024-03-23T18:02:15;4.33;;;1.30;;
21101;SDS011;10709;49.006;12.100;2024-03-23T18:04:41;3.07;;;1.43;;
21101;SDS011;10709;49.006;12.100;2024-03-23T18:07:07;5.00;;;1.50;;
21101;SDS011;10709;49.006;12.100;2024-03-23T18:09:33;4.07;;;1.50;;
21101;SDS011;10709;49.006;12.100;2024-03-23T18:11:58;2.23;;;1.20;;
21101;SDS011;10709;49.006;12.100;2024-03-23T18:14:24;5.80;;;1.43;;
21101;SDS011;10709;49.006;12.100;2024-03-23T18:16:49;4.60;;;1.50;;
21101;SDS011;10709;49.006;12.100;2024-03-23T18:19:15;5.47;;;1.83;;
21101;SDS011;10709;49.006;12.100;2024-03-23T18:21:41;3.93;;;1.50;;
21101;SDS011;10709;49.006;12.100;2024-03-23T18:24:07;2.73;;;1.23;;
21101;SDS011;10709;49.006;12.100;2024-03-23T18:26:33;3.13;;;1.27;;
21101;SDS011;10709;49.006;12.100;2024-03-23T18:28:58;3.40;;;1.40;;
21101;SDS011;10709;49.006;12.100;2024-03-23T18:31:24;3.20;;;1.20;;
21101;SDS011;10709;49.006;12.100;2024-03-23T18:33:49;3.20;;;1.30;;
21101;SDS011;10709;49.006;12.100;2024-03-23T18:36:15;3.73;;;1.37;;
21101;SDS011;10709;49.006;12.100;2024-03-23T18:38:40;4.13;;;1.77;;
21101;SDS011;10709;49.006;12.100;2024-03-23T18:41:06;2.40;;;1.07;;
21101;SDS011;10709;49.006;12.100;2024-03-23T18:43:32;4.93;;;1.20;;
21101;SDS011;10709;49.006;12.100;2024-03-23T18:45:59;2.63;;;1.20;;
21101;SDS011;10709;49.006;12.100;2024-03-23T18:48:24;3.97;;;1.30;;
21101;SDS011;10709;49.006;12.100;2024-03-23T18:50:50;3.03;;;1.30;;
21101;SDS011;10709;49.006;12.100;2024-03-23T18:53:16;4.03;;;1.33;;
21101;SDS011;10709;49.006;12.100;2024-03-23T18:55:50;2.83;;;1.10;;
21101;SDS011;10709;49.006;12.100;2024-03-23T18:58:19;3.73;;;1.20;;
21101;SDS011;10709;49.006;12.100;2024-03-23T19:00:45;3.93;;;1.50;;
21101;SDS011;10709;49.006;12.100;2024-03-23T19:03:19;3.37;;;1.47;;
21101;SDS011;10709;49.006;12.100;2024-03-23T19:05:51;4.07;;;1.57;;
21101;SDS011;10709;49.006;12.100;2024-03-23T19:08:17;2.43;;;1.30;;
21101;SDS011;10709;49.006;12.100;2024-03-23T19:10:42;2.87;;;1.30;;
21101;SDS011;10709;49.006;12.100;2024-03-23T19:13:08;3.90;;;1.37;;
21101;SDS011;10709;49.006;12.100;2024-03-23T19:15:34;2.90;;;1.23;;
21101;SDS011;10709;49.006;12.100;2024-03-23T19:18:00;3.33;;;1.33;;
21101;SDS011;10709;49.006;12.100;2024-03-23T19:20:25;4.30;;;1.30;;
21101;SDS011;10709;49.006;12.100;2024-03-23T19:22:51;3.57;;;1.40;;
21101;SDS011;10709;49.006;12.100;2024-03-23T19:25:16;3.47;;;1.37;;
21101;SDS011;10709;49.006;12.100;2024-03-23T19:27:42;2.50;;;1.20;;
21101;SDS011;10709;49.006;12.100;2024-03-23T19:30:07;3.57;;;1.30;;
21101;SDS011;10709;49.006;12.100;2024-03-23T19:32:35;4.27;;;1.30;;
21101;SDS011;10709;49.006;12.100;2024-03-23T19:35:01;4.90;;;1.63;;
21101;SDS011;10709;49.006;12.100;2024-03-23T19:37:27;1.77;;;1.20;;
21101;SDS011;10709;49.006;12.100;2024-03-23T19:39:54;3.33;;;1.17;;
21101;SDS011;10709;49.006;12.100;2024-03-23T19:42:21;3.33;;;1.23;;
21101;SDS011;10709;49.006;12.100;2024-03-23T19:44:47;4.30;;;1.30;;
21101;SDS011;10709;49.006;12.100;2024-03-23T19:47:12;1.97;;;1.30;;
21101;SDS011;10709;49.006;12.100;2024-03-23T19:49:38;2.87;;;1.10;;
21101;SDS011;10709;49.006;12.100;2024-03-23T19:52:03;3.13;;;1.03;;
21101;SDS011;10709;49.006;12.100;2024-03-23T19:54:29;2.00;;;1.20;;
21101;SDS011;10709;49.006;12.100;2024-03-23T19:56:55;1.90;;;1.10;;
21101;SDS011;10709;49.006;12.100;2024-03-23T19:59:21;2.63;;;1.40;;
21101;SDS011;10709;49.006;12.100;2024-03-23T20:01:46;3.43;;;1.47;;
21101;SDS011;10709;49.006;12.100;2024-03-23T20:04:12;2.53;;;1.33;;
21101;SDS011;10709;49.006;12.100;2024-03-23T20:06:38;4.93;;;1.47;;
21101;SDS011;10709;49.006;12.100;2024-03-23T20:09:04;2.90;;;1.40;;
21101;SDS011;10709;49.006;12.100;2024-03-23T20:11:30;3.23;;;1.37;;
21101;SDS011;10709;49.006;12.100;2024-03-23T20:13:55;4.63;;;1.83;;
21101;SDS011;10709;49.006;12.100;2024-03-23T20:16:21;4.40;;;1.50;;
21101;SDS011;10709;49.006;12.100;2024-03-23T20:18:52;2.50;;;1.47;;
21101;SDS011;10709;49.006;12.100;2024-03-23T20:21:21;4.83;;;1.53;;
21101;SDS011;10709;49.006;12.100;2024-03-23T20:23:46;3.40;;;1.50;;
21101;SDS011;10709;49.006;12.100;2024-03-23T20:26:12;3.47;;;1.60;;
21101;SDS011;10709;49.006;12.100;2024-03-23T20:28:37;2.03;;;1.30;;
21101;SDS011;10709;49.006;12.100;2024-03-23T20:31:03;3.50;;;1.23;;
21101;SDS011;10709;49.006;12.100;2024-03-23T20:33:29;3.53;;;1.30;;
21101;SDS011;10709;49.006;12.100;2024-03-23T20:35:55;1.60;;;1.30;;
21101;SDS011;10709;49.006;12.100;2024-03-23T20:38:21;2.40;;;1.07;;
21101;SDS011;10709;49.006;12.100;2024-03-23T20:40:51;0.80;;;0.80;;
21101;SDS011;10709;49.006;12.100;2024-03-23T20:43:17;0.73;;;0.73;;
21101;SDS011;10709;49.006;12.100;2024-03-23T20:45:42;1.67;;;1.00;;
21101;SDS011;10709;49.006;12.100;2024-03-23T20:48:08;1.77;;;1.20;;
21101;SDS011;10709;49.006;12.100;2024-03-23T20:50:33;1.83;;;1.30;;
21101;SDS011;10709;49.006;12.100;2024-03-23T20:52:59;3.43;;;1.10;;
21101;SDS011;10709;49.006;12.100;2024-03-23T20:55:25;2.10;;;1.20;;
21101;SDS011;10709;49.006;12.100;2024-03-23T20:57:51;1.90;;;1.20;;
21101;SDS011;10709;49.006;12.100;2024-03-23T21:00:20;2.13;;;1.27;;
21101;SDS011;10709;49.006;12.100;2024-03-23T21:02:45;1.80;;;1.10;;
21101;SDS011;10709;49.006;12.100;2024-03-23T21:05:11;2.03;;;1.37;;
21101;SDS011;10709;49.006;12.100;2024-03-23T21:07:37;1.50;;;1.20;;
21101;SDS011;10709;49.006;12.100;2024-03-23T21:10:03;1.17;;;1.00;;
21101;SDS011;10709;49.006;12.100;2024-03-23T21:12:29;1.17;;;1.00;;
21101;SDS011;10709;49.006;12.100;2024-03-23T21:14:54;1.33;;;1.00;;
21101;SDS011;10709;49.006;12.100;2024-03-23T21:17:20;2.27;;;0.90;;
21101;SDS011;10709;49.006;12.100;2024-03-23T21:19:49;1.70;;;1.00;;
21101;SDS011;10709;49.006;12.100;2024-03-23T21:22:14;1.87;;;1.10;;
21101;SDS011;10709;49.006;12.100;2024-03-23T21:24:40;2.30;;;1.17;;
21101;SDS011;10709;49.006;12.100;2024-03-23T21:27:08;1.60;;;1.20;;
21101;SDS011;10709;49.006;12.100;2024-03-23T21:29:34;2.30;;;1.30;;
21101;SDS011;10709;49.006;12.100;2024-03-23T21:32:00;1.80;;;1.17;;
21101;SDS011;10709;49.006;12.100;2024-03-23T21:34:25;2.07;;;1.30;;
21101;SDS011;10709;49.006;12.100;2024-03-23T21:36:52;1.23;;;1.00;;
21101;SDS011;10709;49.006;12.100;2024-03-23T21:39:18;2.03;;;1.10;;
21101;SDS011;10709;49.006;12.100;2024-03-23T21:41:45;1.27;;;1.00;;
21101;SDS011;10709;49.006;12.100;2024-03-23T21:44:11;2.57;;;1.20;;
21101;SDS011;10709;49.006;12.100;2024-03-23T21:46:36;1.70;;;1.13;;
21101;SDS011;10709;49.006;12.100;2024-03-23T21:49:02;1.30;;;1.00;;
21101;SDS011;10709;49.006;12.100;2024-03-23T21:51:28;1.37;;;1.03;;
21101;SDS011;10709;49.006;12.100;2024-03-23T21:53:54;3.03;;;1.10;;
21101;SDS011;10709;49.006;12.100;2024-03-23T21:56:22;1.50;;;1.20;;
21101;SDS011;10709;49.006;12.100;2024-03-23T21:58:48;2.53;;;1.20;;
21101;SDS011;10709;49.006;12.100;2024-03-23T22:01:13;1.27;;;1.10;;
21101;SDS011;10709;49.006;12.100;2024-03-23T22:06:19;2.57;;;1.13;;
21101;SDS011;10709;49.006;12.100;2024-03-23T22:08:45;2.30;;;1.10;;
21101;SDS011;10709;49.006;12.100;2024-03-23T22:11:12;2.20;;;1.00;;
21101;SDS011;10709;49.006;12.100;2024-03-23T22:13:39;1.47;;;0.90;;
21101;SDS011;10709;49.006;12.100;2024-03-23T22:16:04;2.77;;;1.50;;
21101;SDS011;10709;49.006;12.100;2024-03-23T22:18:33;2.27;;;1.10;;
21101;SDS011;10709;49.006;12.100;2024-03-23T22:21:01;2.60;;;1.10;;
21101;SDS011;10709;49.006;12.100;2024-03-23T22:23:31;2.00;;;1.30;;
21101;SDS011;10709;49.006;12.100;2024-03-23T22:25:57;3.03;;;1.33;;
21101;SDS011;10709;49.006;12.100;2024-03-23T22:28:27;1.70;;;1.10;;
21101;SDS011;10709;49.006;12.100;2024-03-23T22:31:00;2.40;;;1.30;;
21101;SDS011;10709;49.006;12.100;2024-03-23T22:33:27;1.60;;;1.17;;
21101;SDS011;10709;49.006;12.100;2024-03-23T22:35:53;1.37;;;1.10;;
21101;SDS011;10709;49.006;12.100;2024-03-23T22:38:23;1.87;;;1.07;;
21101;SDS011;10709;49.006;12.100;2024-03-23T22:40:53;1.50;;;1.00;;
21101;SDS011;10709;49.006;12.100;2024-03-23T22:43:20;1.67;;;1.20;;
21101;SDS011;10709;49.006;12.100;2024-03-23T22:45:51;2.27;;;1.00;;
21101;SDS011;10709;49.006;12.100;2024-03-23T22:48:21;1.47;;;1.10;;
21101;SDS011;10709;49.006;12.100;2024-03-23T22:50:52;1.60;;;1.10;;
21101;SDS011;10709;49.006;12.100;2024-03-23T22:53:24;2.13;;;1.20;;
21101;SDS011;10709;49.006;12.100;2024-03-23T22:55:51;2.00;;;1.13;;
21101;SDS011;10709;49.006;12.100;2024-03-23T22:58:20;1.70;;;1.17;;
21101;SDS011;10709;49.006;12.100;2024-03-23T23:00:47;2.20;;;1.10;;
21101;SDS011;10709;49.006;12.100;2024-03-23T23:03:18;3.87;;;1.10;;
21101;SDS011;10709;49.006;12.100;2024-03-23T23:06:00;1.47;;;1.10;;
21101;SDS011;10709;49.006;12.100;2024-03-23T23:08:30;2.03;;;1.13;;
21101;SDS011;10709;49.006;12.100;2024-03-23T23:10:56;2.53;;;1.33;;
21101;SDS011;10709;49.006;12.100;2024-03-23T23:13:22;1.57;;;1.23;;
21101;SDS011;10709;49.006;12.100;2024-03-23T23:15:48;1.87;;;1.23;;
21101;SDS011;10709;49.006;12.100;2024-03-23T23:18:14;1.97;;;1.00;;
21101;SDS011;10709;49.006;12.100;2024-03-23T23:20:43;1.63;;;1.20;;
21101;SDS011;10709;49.006;12.100;2024-03-23T23:23:10;1.43;;;1.07;;
21101;SDS011;10709;49.006;12.100;2024-03-23T23:25:38;2.03;;;1.17;;
21101;SDS011;10709;49.006;12.100;2024-03-23T23:28:03;1.87;;;1.23;;
21101;SDS011;10709;49.006;12.100;2024-03-23T23:30:30;2.20;;;1.17;;
21101;SDS011;10709;49.006;12.100;2024-03-23T23:32:56;1.90;;;1.00;;
21101;SDS011;10709;49.006;12.100;2024-03-23T23:35:22;2.60;;;1.13;;
21101;SDS011;10709;49.006;12.100;2024-03-23T23:37:52;2.03;;;1.30;;
21101;SDS011;10709;49.006;12.100;2024-03-23T23:40:18;1.47;;;1.10;;
21101;SDS011;10709;49.006;12.100;2024-03-23T23:42:44;1.60;;;0.97;;
21101;SDS011;10709;49.006;12.100;2024-03-23T23:45:10;2.03;;;1.13;;
21101;SDS011;10709;49.006;12.100;2024-03-23T23:47:36;1.00;;;0.90;;
21101;SDS011;10709;49.006;12.100;2024-03-23T23:50:05;1.43;;;1.00;;
21101;SDS011;10709;49.006;12.100;2024-03-23T23:52:31;1.40;;;1.00;;
21101;SDS011;10709;49.006;12.100;2024-03-23T23:54:57;3.10;;;1.20;;